sensor_id;sensor_type;location;lat;lon;timestamp;P1;durP1;ratioP1;P2;durP2;ratioP2
18364;SDS011;9309;52.126;11.616;2023-02-04T00:01:28;4.63;;;2.70;;
18364;SDS011;9309;52.126;11.616;2023-02-04T00:03:55;2.30;;;2.17;;
18364;SDS011;9309;52.126;11.616;2023-02-04T00:06:22;2.40;;;2.40;;
18364;SDS011;9309;52.126;11.616;2023-02-04T00:08:48;2.63;;;2.53;;
18364;SDS011;9309;52.126;11.616;2023-02-04T00:11:15;2.33;;;2.30;;
18364;SDS011;9309;52.126;11.616;2023-02-04T00:13:43;2.40;;;2.30;;
18364;SDS011;9309;52.126;11.616;2023-02-04T00:16:16;2.50;;;2.40;;
18364;SDS011;9309;52.126;11.616;2023-02-04T00:19:34;2.47;;;2.37;;
18364;SDS011;9309;52.126;11.616;2023-02-04T00:22:01;4.03;;;2.17;;
18364;SDS011;9309;52.126;11.616;2023-02-04T00:24:31;4.70;;;2.50;;
18364;SDS011;9309;52.126;11.616;2023-02-04T00:26:57;2.50;;;2.40;;
18364;SDS011;9309;52.126;11.616;2023-02-04T00:29:25;2.30;;;2.20;;
18364;SDS011;9309;52.126;11.616;2023-02-04T00:31:52;2.10;;;2.10;;
18364;SDS011;9309;52.126;11.616;2023-02-04T00:34:19;2.40;;;2.30;;
18364;SDS011;9309;52.126;11.616;2023-02-04T00:36:46;2.43;;;2.33;;
18364;SDS011;9309;52.126;11.616;2023-02-04T00:39:13;2.60;;;2.43;;
18364;SDS011;9309;52.126;11.616;2023-02-04T00:41:39;5.37;;;2.40;;
18364;SDS011;9309;52.126;11.616;2023-02-04T00:44:06;2.50;;;2.40;;
18364;SDS011;9309;52.126;11.616;2023-02-04T00:46:34;2.53;;;2.37;;
18364;SDS011;9309;52.126;11.616;2023-02-04T00:49:02;2.20;;;2.20;;
18364;SDS011;9309;52.126;11.616;2023-02-04T00:51:30;2.47;;;2.40;;
18364;SDS011;9309;52.126;11.616;2023-02-04T00:53:57;3.20;;;2.17;;
18364;SDS011;9309;52.126;11.616;2023-02-04T00:56:24;6.77;;;3.00;;
18364;SDS011;9309;52.126;11.616;2023-02-04T00:58:50;2.43;;;2.40;;
18364;SDS011;9309;52.126;11.616;2023-02-04T01:01:17;3.43;;;2.30;;
18364;SDS011;9309;52.126;11.616;2023-02-04T01:03:47;2.50;;;2.33;;
18364;SDS011;9309;52.126;11.616;2023-02-04T01:06:14;4.17;;;2.10;;
18364;SDS011;9309;52.126;11.616;2023-02-04T01:08:40;2.43;;;2.27;;
18364;SDS011;9309;52.126;11.616;2023-02-04T01:11:07;5.57;;;2.40;;
18364;SDS011;9309;52.126;11.616;2023-02-04T01:13:33;2.70;;;2.60;;
18364;SDS011;9309;52.126;11.616;2023-02-04T01:16:00;3.93;;;2.40;;
18364;SDS011;9309;52.126;11.616;2023-02-04T01:18:27;2.80;;;2.60;;
18364;SDS011;9309;52.126;11.616;2023-02-04T01:20:55;2.97;;;2.70;;
18364;SDS011;9309;52.126;11.616;2023-02-04T01:23:21;2.67;;;2.57;;
18364;SDS011;9309;52.126;11.616;2023-02-04T01:25:48;6.17;;;2.80;;
18364;SDS011;9309;52.126;11.616;2023-02-04T01:28:15;2.90;;;2.70;;
18364;SDS011;9309;52.126;11.616;2023-02-04T01:30:41;3.00;;;2.90;;
18364;SDS011;9309;52.126;11.616;2023-02-04T01:33:08;2.60;;;2.40;;
18364;SDS011;9309;52.126;11.616;2023-02-04T01:35:35;4.93;;;2.87;;
18364;SDS011;9309;52.126;11.616;2023-02-04T01:38:03;3.13;;;2.60;;
18364;SDS011;9309;52.126;11.616;2023-02-04T01:40:29;3.00;;;2.90;;
18364;SDS011;9309;52.126;11.616;2023-02-04T01:42:57;2.73;;;2.53;;
18364;SDS011;9309;52.126;11.616;2023-02-04T01:45:24;2.63;;;2.53;;
18364;SDS011;9309;52.126;11.616;2023-02-04T01:47:52;3.60;;;2.80;;
18364;SDS011;9309;52.126;11.616;2023-02-04T01:50:19;3.33;;;2.80;;
18364;SDS011;9309;52.126;11.616;2023-02-04T01:52:45;3.90;;;2.80;;
18364;SDS011;9309;52.126;11.616;2023-02-04T01:55:15;3.03;;;2.80;;
18364;SDS011;9309;52.126;11.616;2023-02-04T01:57:43;3.20;;;3.00;;
18364;SDS011;9309;52.126;11.616;2023-02-04T02:00:13;4.33;;;3.07;;
18364;SDS011;9309;52.126;11.616;2023-02-04T02:02:42;3.27;;;2.97;;
18364;SDS011;9309;52.126;11.616;2023-02-04T02:05:11;3.00;;;2.90;;
18364;SDS011;9309;52.126;11.616;2023-02-04T02:07:41;3.40;;;3.20;;
18364;SDS011;9309;52.126;11.616;2023-02-04T02:10:09;3.00;;;2.90;;
18364;SDS011;9309;52.126;11.616;2023-02-04T02:12:38;3.10;;;3.00;;
18364;SDS011;9309;52.126;11.616;2023-02-04T02:15:07;3.03;;;2.80;;
18364;SDS011;9309;52.126;11.616;2023-02-04T02:17:34;5.30;;;3.43;;
18364;SDS011;9309;52.126;11.616;2023-02-04T02:20:02;3.30;;;3.20;;
18364;SDS011;9309;52.126;11.616;2023-02-04T02:22:31;4.07;;;3.10;;
18364;SDS011;9309;52.126;11.616;2023-02-04T02:25:09;3.57;;;3.37;;
18364;SDS011;9309;52.126;11.616;2023-02-04T02:27:36;4.13;;;3.23;;
18364;SDS011;9309;52.126;11.616;2023-02-04T02:30:03;3.60;;;3.47;;
18364;SDS011;9309;52.126;11.616;2023-02-04T02:32:31;3.27;;;3.17;;
18364;SDS011;9309;52.126;11.616;2023-02-04T02:34:58;3.80;;;3.47;;
18364;SDS011;9309;52.126;11.616;2023-02-04T02:37:26;3.90;;;3.60;;
18364;SDS011;9309;52.126;11.616;2023-02-04T02:39:53;3.40;;;3.30;;
18364;SDS011;9309;52.126;11.616;2023-02-04T02:42:21;3.60;;;3.37;;
18364;SDS011;9309;52.126;11.616;2023-02-04T02:44:48;3.40;;;3.20;;
18364;SDS011;9309;52.126;11.616;2023-02-04T02:47:16;3.40;;;3.20;;
18364;SDS011;9309;52.126;11.616;2023-02-04T02:49:45;3.33;;;3.23;;
18364;SDS011;9309;52.126;11.616;2023-02-04T02:52:13;3.47;;;3.20;;
18364;SDS011;9309;52.126;11.616;2023-02-04T02:54:40;3.87;;;3.20;;
18364;SDS011;9309;52.126;11.616;2023-02-04T02:57:10;3.70;;;3.60;;
18364;SDS011;9309;52.126;11.616;2023-02-04T02:59:40;3.30;;;3.13;;
18364;SDS011;9309;52.126;11.616;2023-02-04T03:02:08;7.00;;;3.40;;
18364;SDS011;9309;52.126;11.616;2023-02-04T03:04:36;5.47;;;3.10;;
18364;SDS011;9309;52.126;11.616;2023-02-04T03:07:08;5.53;;;3.40;;
18364;SDS011;9309;52.126;11.616;2023-02-04T03:09:35;3.70;;;3.40;;
18364;SDS011;9309;52.126;11.616;2023-02-04T03:12:02;4.97;;;3.13;;
18364;SDS011;9309;52.126;11.616;2023-02-04T03:14:32;3.33;;;3.20;;
18364;SDS011;9309;52.126;11.616;2023-02-04T03:17:01;3.50;;;3.30;;
18364;SDS011;9309;52.126;11.616;2023-02-04T03:19:29;3.20;;;3.07;;
18364;SDS011;9309;52.126;11.616;2023-02-04T03:21:56;3.27;;;3.10;;
18364;SDS011;9309;52.126;11.616;2023-02-04T03:24:24;3.33;;;3.10;;
18364;SDS011;9309;52.126;11.616;2023-02-04T03:26:51;3.73;;;3.30;;
18364;SDS011;9309;52.126;11.616;2023-02-04T03:29:18;3.30;;;3.13;;
18364;SDS011;9309;52.126;11.616;2023-02-04T03:31:45;3.60;;;3.27;;
18364;SDS011;9309;52.126;11.616;2023-02-04T03:34:13;3.50;;;3.03;;
18364;SDS011;9309;52.126;11.616;2023-02-04T03:36:39;3.20;;;3.07;;
18364;SDS011;9309;52.126;11.616;2023-02-04T03:39:06;7.83;;;3.30;;
18364;SDS011;9309;52.126;11.616;2023-02-04T03:41:33;3.10;;;3.00;;
18364;SDS011;9309;52.126;11.616;2023-02-04T03:43:59;3.63;;;3.37;;
18364;SDS011;9309;52.126;11.616;2023-02-04T03:46:26;4.30;;;3.30;;
18364;SDS011;9309;52.126;11.616;2023-02-04T03:48:53;3.50;;;3.20;;
18364;SDS011;9309;52.126;11.616;2023-02-04T03:51:21;3.70;;;3.50;;
18364;SDS011;9309;52.126;11.616;2023-02-04T03:53:48;4.73;;;3.30;;
18364;SDS011;9309;52.126;11.616;2023-02-04T03:56:14;4.07;;;3.67;;
18364;SDS011;9309;52.126;11.616;2023-02-04T03:58:41;3.53;;;3.37;;
18364;SDS011;9309;52.126;11.616;2023-02-04T04:01:08;3.57;;;3.20;;
18364;SDS011;9309;52.126;11.616;2023-02-04T04:03:34;3.73;;;3.50;;
18364;SDS011;9309;52.126;11.616;2023-02-04T04:06:01;3.93;;;3.63;;
18364;SDS011;9309;52.126;11.616;2023-02-04T04:08:31;3.63;;;3.50;;
18364;SDS011;9309;52.126;11.616;2023-02-04T04:10:58;3.63;;;3.43;;
18364;SDS011;9309;52.126;11.616;2023-02-04T04:13:25;4.40;;;3.63;;
18364;SDS011;9309;52.126;11.616;2023-02-04T04:15:51;5.60;;;3.57;;
18364;SDS011;9309;52.126;11.616;2023-02-04T04:18:18;3.90;;;3.60;;
18364;SDS011;9309;52.126;11.616;2023-02-04T04:20:45;3.87;;;3.67;;
18364;SDS011;9309;52.126;11.616;2023-02-04T04:23:11;4.13;;;3.80;;
18364;SDS011;9309;52.126;11.616;2023-02-04T04:25:39;4.13;;;3.70;;
18364;SDS011;9309;52.126;11.616;2023-02-04T04:28:06;6.40;;;3.80;;
18364;SDS011;9309;52.126;11.616;2023-02-04T04:30:32;3.93;;;3.60;;
18364;SDS011;9309;52.126;11.616;2023-02-04T04:32:59;4.37;;;3.60;;
18364;SDS011;9309;52.126;11.616;2023-02-04T04:35:26;5.40;;;3.93;;
18364;SDS011;9309;52.126;11.616;2023-02-04T04:37:52;4.70;;;4.30;;
18364;SDS011;9309;52.126;11.616;2023-02-04T04:40:19;4.13;;;3.83;;
18364;SDS011;9309;52.126;11.616;2023-02-04T04:42:47;4.40;;;4.10;;
18364;SDS011;9309;52.126;11.616;2023-02-04T04:45:13;4.17;;;3.97;;
18364;SDS011;9309;52.126;11.616;2023-02-04T04:47:40;4.90;;;4.40;;
18364;SDS011;9309;52.126;11.616;2023-02-04T04:50:07;9.57;;;4.00;;
18364;SDS011;9309;52.126;11.616;2023-02-04T04:52:34;4.37;;;4.03;;
18364;SDS011;9309;52.126;11.616;2023-02-04T04:55:00;6.73;;;4.30;;
18364;SDS011;9309;52.126;11.616;2023-02-04T04:57:27;7.10;;;4.77;;
18364;SDS011;9309;52.126;11.616;2023-02-04T04:59:55;8.37;;;4.10;;
18364;SDS011;9309;52.126;11.616;2023-02-04T05:02:22;4.20;;;4.00;;
18364;SDS011;9309;52.126;11.616;2023-02-04T05:04:49;4.30;;;4.03;;
18364;SDS011;9309;52.126;11.616;2023-02-04T05:07:16;4.47;;;4.00;;
18364;SDS011;9309;52.126;11.616;2023-02-04T05:09:42;6.23;;;4.33;;
18364;SDS011;9309;52.126;11.616;2023-02-04T05:12:09;6.50;;;4.50;;
18364;SDS011;9309;52.126;11.616;2023-02-04T05:14:36;4.77;;;4.07;;
18364;SDS011;9309;52.126;11.616;2023-02-04T05:17:04;5.13;;;4.60;;
18364;SDS011;9309;52.126;11.616;2023-02-04T05:19:31;5.23;;;4.40;;
18364;SDS011;9309;52.126;11.616;2023-02-04T05:21:57;5.03;;;4.33;;
18364;SDS011;9309;52.126;11.616;2023-02-04T05:24:25;5.23;;;4.73;;
18364;SDS011;9309;52.126;11.616;2023-02-04T05:26:52;4.33;;;4.00;;
18364;SDS011;9309;52.126;11.616;2023-02-04T05:29:19;8.10;;;4.47;;
18364;SDS011;9309;52.126;11.616;2023-02-04T05:31:45;6.10;;;4.17;;
18364;SDS011;9309;52.126;11.616;2023-02-04T05:34:13;5.47;;;4.70;;
18364;SDS011;9309;52.126;11.616;2023-02-04T05:36:40;6.50;;;4.90;;
18364;SDS011;9309;52.126;11.616;2023-02-04T05:39:06;8.33;;;4.90;;
18364;SDS011;9309;52.126;11.616;2023-02-04T05:41:33;5.30;;;4.80;;
18364;SDS011;9309;52.126;11.616;2023-02-04T05:44:00;5.00;;;4.57;;
18364;SDS011;9309;52.126;11.616;2023-02-04T05:46:26;5.60;;;5.10;;
18364;SDS011;9309;52.126;11.616;2023-02-04T05:48:53;6.10;;;4.90;;
18364;SDS011;9309;52.126;11.616;2023-02-04T05:51:21;5.77;;;4.93;;
18364;SDS011;9309;52.126;11.616;2023-02-04T05:53:48;5.67;;;5.00;;
18364;SDS011;9309;52.126;11.616;2023-02-04T05:56:14;4.73;;;4.47;;
18364;SDS011;9309;52.126;11.616;2023-02-04T05:58:41;5.50;;;5.03;;
18364;SDS011;9309;52.126;11.616;2023-02-04T06:01:08;9.23;;;5.20;;
18364;SDS011;9309;52.126;11.616;2023-02-04T06:03:34;5.17;;;4.67;;
18364;SDS011;9309;52.126;11.616;2023-02-04T06:06:01;7.87;;;4.60;;
18364;SDS011;9309;52.126;11.616;2023-02-04T06:08:29;7.23;;;5.00;;
18364;SDS011;9309;52.126;11.616;2023-02-04T06:10:56;9.27;;;4.90;;
18364;SDS011;9309;52.126;11.616;2023-02-04T06:13:22;5.43;;;5.00;;
18364;SDS011;9309;52.126;11.616;2023-02-04T06:15:49;5.30;;;4.90;;
18364;SDS011;9309;52.126;11.616;2023-02-04T06:18:16;9.63;;;5.03;;
18364;SDS011;9309;52.126;11.616;2023-02-04T06:20:42;5.33;;;4.93;;
18364;SDS011;9309;52.126;11.616;2023-02-04T06:23:09;4.90;;;4.57;;
18364;SDS011;9309;52.126;11.616;2023-02-04T06:25:37;9.10;;;5.13;;
18364;SDS011;9309;52.126;11.616;2023-02-04T06:28:03;5.97;;;5.37;;
18364;SDS011;9309;52.126;11.616;2023-02-04T06:30:30;7.73;;;5.17;;
18364;SDS011;9309;52.126;11.616;2023-02-04T06:32:57;7.40;;;5.20;;
18364;SDS011;9309;52.126;11.616;2023-02-04T06:35:23;6.67;;;5.37;;
18364;SDS011;9309;52.126;11.616;2023-02-04T06:37:50;7.40;;;5.63;;
18364;SDS011;9309;52.126;11.616;2023-02-04T06:40:17;6.43;;;5.87;;
18364;SDS011;9309;52.126;11.616;2023-02-04T06:42:45;7.93;;;5.40;;
18364;SDS011;9309;52.126;11.616;2023-02-04T06:45:11;5.87;;;5.27;;
18364;SDS011;9309;52.126;11.616;2023-02-04T06:47:38;7.90;;;5.57;;
18364;SDS011;9309;52.126;11.616;2023-02-04T06:50:05;6.10;;;5.60;;
18364;SDS011;9309;52.126;11.616;2023-02-04T06:52:32;5.80;;;5.20;;
18364;SDS011;9309;52.126;11.616;2023-02-04T06:54:59;8.63;;;5.50;;
18364;SDS011;9309;52.126;11.616;2023-02-04T06:57:25;7.30;;;5.33;;
18364;SDS011;9309;52.126;11.616;2023-02-04T06:59:53;5.97;;;4.97;;
18364;SDS011;9309;52.126;11.616;2023-02-04T07:02:20;5.47;;;5.00;;
18364;SDS011;9309;52.126;11.616;2023-02-04T07:04:46;9.03;;;5.30;;
18364;SDS011;9309;52.126;11.616;2023-02-04T07:07:13;5.50;;;5.00;;
18364;SDS011;9309;52.126;11.616;2023-02-04T07:09:40;6.57;;;5.83;;
18364;SDS011;9309;52.126;11.616;2023-02-04T07:12:06;6.97;;;5.50;;
18364;SDS011;9309;52.126;11.616;2023-02-04T07:14:33;8.17;;;5.73;;
18364;SDS011;9309;52.126;11.616;2023-02-04T07:17:01;7.27;;;5.67;;
18364;SDS011;9309;52.126;11.616;2023-02-04T07:19:28;6.23;;;5.20;;
18364;SDS011;9309;52.126;11.616;2023-02-04T07:21:54;6.47;;;4.90;;
18364;SDS011;9309;52.126;11.616;2023-02-04T07:24:21;8.70;;;5.60;;
18364;SDS011;9309;52.126;11.616;2023-02-04T07:26:48;9.20;;;5.23;;
18364;SDS011;9309;52.126;11.616;2023-02-04T07:29:14;5.43;;;4.93;;
18364;SDS011;9309;52.126;11.616;2023-02-04T07:31:41;6.00;;;5.50;;
18364;SDS011;9309;52.126;11.616;2023-02-04T07:34:10;6.43;;;5.80;;
18364;SDS011;9309;52.126;11.616;2023-02-04T07:36:37;8.47;;;5.80;;
18364;SDS011;9309;52.126;11.616;2023-02-04T07:39:04;6.87;;;5.20;;
18364;SDS011;9309;52.126;11.616;2023-02-04T07:41:31;7.20;;;5.53;;
18364;SDS011;9309;52.126;11.616;2023-02-04T07:43:57;6.60;;;5.63;;
18364;SDS011;9309;52.126;11.616;2023-02-04T07:46:24;6.47;;;5.50;;
18364;SDS011;9309;52.126;11.616;2023-02-04T07:48:51;5.63;;;5.17;;
18364;SDS011;9309;52.126;11.616;2023-02-04T07:51:19;8.93;;;5.67;;
18364;SDS011;9309;52.126;11.616;2023-02-04T07:53:46;5.83;;;5.40;;
18364;SDS011;9309;52.126;11.616;2023-02-04T07:56:12;8.37;;;5.97;;
18364;SDS011;9309;52.126;11.616;2023-02-04T07:58:39;6.20;;;5.43;;
18364;SDS011;9309;52.126;11.616;2023-02-04T08:01:06;6.10;;;5.43;;
18364;SDS011;9309;52.126;11.616;2023-02-04T08:03:32;6.90;;;5.67;;
18364;SDS011;9309;52.126;11.616;2023-02-04T08:05:59;6.33;;;5.67;;
18364;SDS011;9309;52.126;11.616;2023-02-04T08:08:27;7.10;;;5.30;;
18364;SDS011;9309;52.126;11.616;2023-02-04T08:10:54;6.07;;;5.23;;
18364;SDS011;9309;52.126;11.616;2023-02-04T08:13:21;5.43;;;5.07;;
18364;SDS011;9309;52.126;11.616;2023-02-04T08:15:47;9.13;;;5.60;;
18364;SDS011;9309;52.126;11.616;2023-02-04T08:18:14;7.30;;;4.90;;
18364;SDS011;9309;52.126;11.616;2023-02-04T08:20:41;6.03;;;4.73;;
18364;SDS011;9309;52.126;11.616;2023-02-04T08:23:07;6.43;;;4.83;;
18364;SDS011;9309;52.126;11.616;2023-02-04T08:25:36;6.40;;;4.40;;
18364;SDS011;9309;52.126;11.616;2023-02-04T08:28:02;4.97;;;4.53;;
18364;SDS011;9309;52.126;11.616;2023-02-04T08:30:29;8.47;;;3.80;;
18364;SDS011;9309;52.126;11.616;2023-02-04T08:32:56;3.77;;;3.30;;
18364;SDS011;9309;52.126;11.616;2023-02-04T08:35:22;3.43;;;3.13;;
18364;SDS011;9309;52.126;11.616;2023-02-04T08:37:49;3.60;;;3.30;;
18364;SDS011;9309;52.126;11.616;2023-02-04T08:40:16;6.17;;;3.50;;
18364;SDS011;9309;52.126;11.616;2023-02-04T08:42:45;7.40;;;3.60;;
18364;SDS011;9309;52.126;11.616;2023-02-04T08:45:12;4.73;;;3.40;;
18364;SDS011;9309;52.126;11.616;2023-02-04T08:47:39;2.97;;;2.83;;
18364;SDS011;9309;52.126;11.616;2023-02-04T08:50:06;3.87;;;2.70;;
18364;SDS011;9309;52.126;11.616;2023-02-04T08:52:34;3.53;;;3.20;;
18364;SDS011;9309;52.126;11.616;2023-02-04T08:55:01;3.10;;;2.90;;
18364;SDS011;9309;52.126;11.616;2023-02-04T08:57:27;3.20;;;2.90;;
18364;SDS011;9309;52.126;11.616;2023-02-04T08:59:55;3.23;;;2.93;;
18364;SDS011;9309;52.126;11.616;2023-02-04T09:02:22;5.40;;;2.53;;
18364;SDS011;9309;52.126;11.616;2023-02-04T09:04:49;2.90;;;2.53;;
18364;SDS011;9309;52.126;11.616;2023-02-04T09:07:16;3.30;;;2.77;;
18364;SDS011;9309;52.126;11.616;2023-02-04T09:09:42;2.70;;;2.63;;
18364;SDS011;9309;52.126;11.616;2023-02-04T09:12:09;2.90;;;2.70;;
18364;SDS011;9309;52.126;11.616;2023-02-04T09:14:35;6.00;;;2.60;;
18364;SDS011;9309;52.126;11.616;2023-02-04T09:17:04;3.23;;;2.60;;
18364;SDS011;9309;52.126;11.616;2023-02-04T09:19:31;3.93;;;2.53;;
18364;SDS011;9309;52.126;11.616;2023-02-04T09:21:58;5.50;;;2.30;;
18364;SDS011;9309;52.126;11.616;2023-02-04T09:24:25;2.70;;;2.50;;
18364;SDS011;9309;52.126;11.616;2023-02-04T09:26:52;3.47;;;2.10;;
18364;SDS011;9309;52.126;11.616;2023-02-04T09:29:19;5.97;;;2.23;;
18364;SDS011;9309;52.126;11.616;2023-02-04T09:34:14;4.87;;;2.20;;
18364;SDS011;9309;52.126;11.616;2023-02-04T09:36:42;3.43;;;2.43;;
18364;SDS011;9309;52.126;11.616;2023-02-04T09:39:08;2.37;;;2.37;;
18364;SDS011;9309;52.126;11.616;2023-02-04T09:41:35;3.63;;;2.70;;
18364;SDS011;9309;52.126;11.616;2023-02-04T09:44:04;5.60;;;2.93;;
18364;SDS011;9309;52.126;11.616;2023-02-04T09:46:37;3.60;;;2.70;;
18364;SDS011;9309;52.126;11.616;2023-02-04T09:49:04;2.53;;;2.43;;
18364;SDS011;9309;52.126;11.616;2023-02-04T09:51:32;2.70;;;2.50;;
18364;SDS011;9309;52.126;11.616;2023-02-04T09:54:02;2.53;;;2.30;;
18364;SDS011;9309;52.126;11.616;2023-02-04T09:56:32;2.97;;;2.77;;
18364;SDS011;9309;52.126;11.616;2023-02-04T09:58:58;2.57;;;2.37;;
18364;SDS011;9309;52.126;11.616;2023-02-04T10:01:26;5.07;;;2.57;;
18364;SDS011;9309;52.126;11.616;2023-02-04T10:03:53;2.37;;;2.17;;
18364;SDS011;9309;52.126;11.616;2023-02-04T10:06:25;3.03;;;2.80;;
18364;SDS011;9309;52.126;11.616;2023-02-04T10:08:53;7.07;;;2.47;;
18364;SDS011;9309;52.126;11.616;2023-02-04T10:11:22;2.43;;;2.33;;
18364;SDS011;9309;52.126;11.616;2023-02-04T10:13:52;3.40;;;2.50;;
18364;SDS011;9309;52.126;11.616;2023-02-04T10:16:21;2.70;;;2.50;;
18364;SDS011;9309;52.126;11.616;2023-02-04T10:18:53;2.60;;;2.40;;
18364;SDS011;9309;52.126;11.616;2023-02-04T10:21:21;2.40;;;2.17;;
18364;SDS011;9309;52.126;11.616;2023-02-04T10:23:54;5.70;;;2.37;;
18364;SDS011;9309;52.126;11.616;2023-02-04T10:26:23;2.50;;;2.40;;
18364;SDS011;9309;52.126;11.616;2023-02-04T10:28:56;3.50;;;2.57;;
18364;SDS011;9309;52.126;11.616;2023-02-04T10:31:28;2.97;;;2.10;;
18364;SDS011;9309;52.126;11.616;2023-02-04T10:34:08;3.17;;;2.20;;
18364;SDS011;9309;52.126;11.616;2023-02-04T10:36:38;4.57;;;2.30;;
18364;SDS011;9309;52.126;11.616;2023-02-04T10:39:09;2.23;;;2.07;;
18364;SDS011;9309;52.126;11.616;2023-02-04T10:41:37;4.93;;;2.13;;
18364;SDS011;9309;52.126;11.616;2023-02-04T10:44:09;2.63;;;2.43;;
18364;SDS011;9309;52.126;11.616;2023-02-04T10:46:37;2.10;;;2.00;;
18364;SDS011;9309;52.126;11.616;2023-02-04T10:49:04;2.03;;;2.00;;
18364;SDS011;9309;52.126;11.616;2023-02-04T10:51:41;2.40;;;2.23;;
18364;SDS011;9309;52.126;11.616;2023-02-04T10:54:10;2.03;;;1.93;;
18364;SDS011;9309;52.126;11.616;2023-02-04T10:56:56;3.33;;;1.73;;
18364;SDS011;9309;52.126;11.616;2023-02-04T10:59:25;2.27;;;2.00;;
18364;SDS011;9309;52.126;11.616;2023-02-04T11:01:53;4.43;;;2.00;;
18364;SDS011;9309;52.126;11.616;2023-02-04T11:04:21;2.47;;;1.77;;
18364;SDS011;9309;52.126;11.616;2023-02-04T11:06:48;3.77;;;2.10;;
18364;SDS011;9309;52.126;11.616;2023-02-04T11:09:16;4.57;;;2.10;;
18364;SDS011;9309;52.126;11.616;2023-02-04T11:11:44;3.50;;;2.10;;
18364;SDS011;9309;52.126;11.616;2023-02-04T11:14:21;3.80;;;2.13;;
18364;SDS011;9309;52.126;11.616;2023-02-04T11:19:29;2.23;;;2.10;;
18364;SDS011;9309;52.126;11.616;2023-02-04T11:22:18;5.60;;;2.20;;
18364;SDS011;9309;52.126;11.616;2023-02-04T11:24:49;4.13;;;2.10;;
18364;SDS011;9309;52.126;11.616;2023-02-04T11:27:21;3.07;;;1.90;;
18364;SDS011;9309;52.126;11.616;2023-02-04T11:29:49;3.30;;;3.07;;
18364;SDS011;9309;52.126;11.616;2023-02-04T11:32:27;5.03;;;2.10;;
18364;SDS011;9309;52.126;11.616;2023-02-04T11:35:05;2.00;;;1.90;;
18364;SDS011;9309;52.126;11.616;2023-02-04T11:37:47;1.87;;;1.80;;
18364;SDS011;9309;52.126;11.616;2023-02-04T11:40:23;3.87;;;2.03;;
18364;SDS011;9309;52.126;11.616;2023-02-04T11:42:56;5.80;;;2.07;;
18364;SDS011;9309;52.126;11.616;2023-02-04T11:45:25;5.40;;;2.07;;
18364;SDS011;9309;52.126;11.616;2023-02-04T11:47:55;1.77;;;1.77;;
18364;SDS011;9309;52.126;11.616;2023-02-04T11:50:24;1.83;;;1.80;;
18364;SDS011;9309;52.126;11.616;2023-02-04T11:52:54;2.30;;;2.10;;
18364;SDS011;9309;52.126;11.616;2023-02-04T11:55:22;2.13;;;1.97;;
18364;SDS011;9309;52.126;11.616;2023-02-04T11:57:50;2.23;;;2.03;;
18364;SDS011;9309;52.126;11.616;2023-02-04T12:00:19;1.97;;;1.80;;
18364;SDS011;9309;52.126;11.616;2023-02-04T12:02:48;2.97;;;2.00;;
18364;SDS011;9309;52.126;11.616;2023-02-04T12:05:17;3.20;;;2.30;;
18364;SDS011;9309;52.126;11.616;2023-02-04T12:07:45;4.30;;;2.60;;
18364;SDS011;9309;52.126;11.616;2023-02-04T12:10:14;2.93;;;2.10;;
18364;SDS011;9309;52.126;11.616;2023-02-04T12:12:52;2.40;;;2.20;;
18364;SDS011;9309;52.126;11.616;2023-02-04T12:15:22;2.60;;;2.40;;
18364;SDS011;9309;52.126;11.616;2023-02-04T12:17:59;6.70;;;2.47;;
18364;SDS011;9309;52.126;11.616;2023-02-04T12:20:27;4.17;;;2.60;;
18364;SDS011;9309;52.126;11.616;2023-02-04T12:22:55;2.30;;;2.20;;
18364;SDS011;9309;52.126;11.616;2023-02-04T12:25:23;3.30;;;2.20;;
18364;SDS011;9309;52.126;11.616;2023-02-04T12:27:51;3.13;;;2.30;;
18364;SDS011;9309;52.126;11.616;2023-02-04T12:30:18;6.60;;;2.03;;
18364;SDS011;9309;52.126;11.616;2023-02-04T12:32:45;2.93;;;2.30;;
18364;SDS011;9309;52.126;11.616;2023-02-04T12:35:12;4.63;;;2.20;;
18364;SDS011;9309;52.126;11.616;2023-02-04T12:37:39;3.23;;;2.90;;
18364;SDS011;9309;52.126;11.616;2023-02-04T12:40:06;2.37;;;2.30;;
18364;SDS011;9309;52.126;11.616;2023-02-04T12:42:35;1.93;;;1.93;;
18364;SDS011;9309;52.126;11.616;2023-02-04T12:45:02;2.30;;;2.20;;
18364;SDS011;9309;52.126;11.616;2023-02-04T12:47:29;2.40;;;2.30;;
18364;SDS011;9309;52.126;11.616;2023-02-04T12:49:55;4.63;;;2.47;;
18364;SDS011;9309;52.126;11.616;2023-02-04T12:52:22;2.37;;;2.30;;
18364;SDS011;9309;52.126;11.616;2023-02-04T12:54:49;3.70;;;2.63;;
18364;SDS011;9309;52.126;11.616;2023-02-04T12:57:15;2.03;;;1.93;;
18364;SDS011;9309;52.126;11.616;2023-02-04T12:59:45;2.73;;;2.53;;
18364;SDS011;9309;52.126;11.616;2023-02-04T13:02:12;2.03;;;1.93;;
18364;SDS011;9309;52.126;11.616;2023-02-04T13:04:39;2.13;;;1.93;;
18364;SDS011;9309;52.126;11.616;2023-02-04T13:07:06;2.20;;;2.00;;
18364;SDS011;9309;52.126;11.616;2023-02-04T13:09:33;4.40;;;2.10;;
18364;SDS011;9309;52.126;11.616;2023-02-04T13:12:01;4.10;;;1.97;;
18364;SDS011;9309;52.126;11.616;2023-02-04T13:14:27;2.47;;;1.93;;
18364;SDS011;9309;52.126;11.616;2023-02-04T13:16:57;3.50;;;2.00;;
18364;SDS011;9309;52.126;11.616;2023-02-04T13:19:24;3.90;;;1.80;;
18364;SDS011;9309;52.126;11.616;2023-02-04T13:21:51;2.20;;;2.10;;
18364;SDS011;9309;52.126;11.616;2023-02-04T13:24:17;6.57;;;1.80;;
18364;SDS011;9309;52.126;11.616;2023-02-04T13:26:44;1.80;;;1.80;;
18364;SDS011;9309;52.126;11.616;2023-02-04T13:29:11;2.00;;;2.00;;
18364;SDS011;9309;52.126;11.616;2023-02-04T13:31:37;2.30;;;2.20;;
18364;SDS011;9309;52.126;11.616;2023-02-04T13:34:05;2.10;;;2.00;;
18364;SDS011;9309;52.126;11.616;2023-02-04T13:36:32;2.10;;;2.03;;
18364;SDS011;9309;52.126;11.616;2023-02-04T13:38:59;1.93;;;1.90;;
18364;SDS011;9309;52.126;11.616;2023-02-04T13:41:26;3.33;;;1.93;;
18364;SDS011;9309;52.126;11.616;2023-02-04T13:43:52;2.00;;;1.90;;
18364;SDS011;9309;52.126;11.616;2023-02-04T13:46:19;1.87;;;1.87;;
18364;SDS011;9309;52.126;11.616;2023-02-04T13:48:46;2.00;;;1.90;;
18364;SDS011;9309;52.126;11.616;2023-02-04T13:51:15;2.37;;;2.27;;
18364;SDS011;9309;52.126;11.616;2023-02-04T13:53:42;7.30;;;3.40;;
18364;SDS011;9309;52.126;11.616;2023-02-04T13:56:09;2.30;;;2.20;;
18364;SDS011;9309;52.126;11.616;2023-02-04T13:58:35;2.60;;;2.50;;
18364;SDS011;9309;52.126;11.616;2023-02-04T14:01:02;3.50;;;2.13;;
18364;SDS011;9309;52.126;11.616;2023-02-04T14:03:29;2.80;;;2.00;;
18364;SDS011;9309;52.126;11.616;2023-02-04T14:05:56;2.93;;;2.00;;
18364;SDS011;9309;52.126;11.616;2023-02-04T14:08:23;1.80;;;1.80;;
18364;SDS011;9309;52.126;11.616;2023-02-04T14:10:50;2.70;;;2.00;;
18364;SDS011;9309;52.126;11.616;2023-02-04T14:13:17;1.87;;;1.87;;
18364;SDS011;9309;52.126;11.616;2023-02-04T14:15:43;2.73;;;1.97;;
18364;SDS011;9309;52.126;11.616;2023-02-04T14:18:10;2.57;;;2.10;;
18364;SDS011;9309;52.126;11.616;2023-02-04T14:20:37;2.40;;;2.30;;
18364;SDS011;9309;52.126;11.616;2023-02-04T14:23:04;2.37;;;1.80;;
18364;SDS011;9309;52.126;11.616;2023-02-04T14:25:32;1.57;;;1.57;;
18364;SDS011;9309;52.126;11.616;2023-02-04T14:27:59;1.50;;;1.50;;
18364;SDS011;9309;52.126;11.616;2023-02-04T14:30:26;1.50;;;1.50;;
18364;SDS011;9309;52.126;11.616;2023-02-04T14:32:54;1.50;;;1.50;;
18364;SDS011;9309;52.126;11.616;2023-02-04T14:35:21;4.53;;;1.70;;
18364;SDS011;9309;52.126;11.616;2023-02-04T14:37:48;2.50;;;1.80;;
18364;SDS011;9309;52.126;11.616;2023-02-04T14:40:15;1.50;;;1.50;;
18364;SDS011;9309;52.126;11.616;2023-02-04T14:42:44;1.77;;;1.70;;
18364;SDS011;9309;52.126;11.616;2023-02-04T14:45:12;1.80;;;1.70;;
18364;SDS011;9309;52.126;11.616;2023-02-04T14:47:39;3.30;;;1.90;;
18364;SDS011;9309;52.126;11.616;2023-02-04T14:50:07;1.80;;;1.70;;
18364;SDS011;9309;52.126;11.616;2023-02-04T14:52:36;5.57;;;2.07;;
18364;SDS011;9309;52.126;11.616;2023-02-04T14:55:03;2.10;;;2.00;;
18364;SDS011;9309;52.126;11.616;2023-02-04T14:57:30;2.20;;;2.10;;